sensor_id;sensor_type;location;lat;lon;timestamp;P1;durP1;ratioP1;P2;durP2;ratioP2
41897;SDS011;27576;53.366;-1.498;2023-07-29T00:00:19;3.15;;;1.42;;
41897;SDS011;27576;53.366;-1.498;2023-07-29T00:02:45;4.13;;;1.60;;
41897;SDS011;27576;53.366;-1.498;2023-07-29T00:05:11;2.60;;;1.60;;
41897;SDS011;27576;53.366;-1.498;2023-07-29T00:07:36;4.38;;;1.25;;
41897;SDS011;27576;53.366;-1.498;2023-07-29T00:10:02;2.15;;;1.60;;
41897;SDS011;27576;53.366;-1.498;2023-07-29T00:12:28;7.80;;;1.60;;
41897;SDS011;27576;53.366;-1.498;2023-07-29T00:14:54;2.00;;;1.40;;
41897;SDS011;27576;53.366;-1.498;2023-07-29T00:17:19;3.67;;;1.38;;
41897;SDS011;27576;53.366;-1.498;2023-07-29T00:19:45;2.22;;;1.75;;
41897;SDS011;27576;53.366;-1.498;2023-07-29T00:22:11;4.15;;;1.70;;
41897;SDS011;27576;53.366;-1.498;2023-07-29T00:24:36;2.40;;;1.58;;
41897;SDS011;27576;53.366;-1.498;2023-07-29T00:27:02;3.13;;;1.50;;
41897;SDS011;27576;53.366;-1.498;2023-07-29T00:29:27;4.43;;;1.80;;
41897;SDS011;27576;53.366;-1.498;2023-07-29T00:31:52;3.38;;;1.63;;
41897;SDS011;27576;53.366;-1.498;2023-07-29T00:34:18;4.30;;;2.03;;
41897;SDS011;27576;53.366;-1.498;2023-07-29T00:36:44;3.03;;;1.75;;
41897;SDS011;27576;53.366;-1.498;2023-07-29T00:39:10;3.08;;;1.70;;
41897;SDS011;27576;53.366;-1.498;2023-07-29T00:41:36;3.97;;;2.20;;
41897;SDS011;27576;53.366;-1.498;2023-07-29T00:44:01;4.75;;;2.03;;
41897;SDS011;27576;53.366;-1.498;2023-07-29T00:46:27;5.18;;;1.77;;
41897;SDS011;27576;53.366;-1.498;2023-07-29T00:48:53;2.70;;;2.28;;
41897;SDS011;27576;53.366;-1.498;2023-07-29T00:51:20;3.50;;;1.65;;
41897;SDS011;27576;53.366;-1.498;2023-07-29T00:53:45;4.22;;;2.17;;
41897;SDS011;27576;53.366;-1.498;2023-07-29T00:56:11;3.17;;;1.67;;
41897;SDS011;27576;53.366;-1.498;2023-07-29T00:58:36;2.30;;;1.60;;
41897;SDS011;27576;53.366;-1.498;2023-07-29T01:01:02;2.58;;;1.85;;
41897;SDS011;27576;53.366;-1.498;2023-07-29T01:03:27;2.28;;;1.73;;
41897;SDS011;27576;53.366;-1.498;2023-07-29T01:08:52;3.40;;;1.95;;
41897;SDS011;27576;53.366;-1.498;2023-07-29T01:14:00;4.68;;;1.92;;
41897;SDS011;27576;53.366;-1.498;2023-07-29T01:16:31;2.95;;;1.92;;
41897;SDS011;27576;53.366;-1.498;2023-07-29T01:19:05;3.85;;;2.00;;
41897;SDS011;27576;53.366;-1.498;2023-07-29T01:21:32;3.30;;;2.00;;
41897;SDS011;27576;53.366;-1.498;2023-07-29T01:24:00;3.47;;;1.98;;
41897;SDS011;27576;53.366;-1.498;2023-07-29T01:26:25;2.35;;;1.67;;
41897;SDS011;27576;53.366;-1.498;2023-07-29T01:28:50;2.42;;;1.70;;
41897;SDS011;27576;53.366;-1.498;2023-07-29T01:31:17;3.15;;;2.05;;
41897;SDS011;27576;53.366;-1.498;2023-07-29T01:33:59;2.25;;;1.63;;
41897;SDS011;27576;53.366;-1.498;2023-07-29T01:36:31;5.65;;;2.22;;
41897;SDS011;27576;53.366;-1.498;2023-07-29T01:38:59;2.63;;;1.80;;
41897;SDS011;27576;53.366;-1.498;2023-07-29T01:41:26;1.98;;;1.85;;
41897;SDS011;27576;53.366;-1.498;2023-07-29T01:43:53;3.70;;;1.75;;
41897;SDS011;27576;53.366;-1.498;2023-07-29T01:46:20;3.92;;;2.05;;
41897;SDS011;27576;53.366;-1.498;2023-07-29T01:48:46;2.10;;;1.90;;
41897;SDS011;27576;53.366;-1.498;2023-07-29T01:51:12;7.85;;;1.80;;
41897;SDS011;27576;53.366;-1.498;2023-07-29T01:53:38;5.65;;;2.17;;
41897;SDS011;27576;53.366;-1.498;2023-07-29T01:56:03;2.60;;;1.85;;
41897;SDS011;27576;53.366;-1.498;2023-07-29T01:58:28;2.72;;;2.08;;
41897;SDS011;27576;53.366;-1.498;2023-07-29T02:00:54;5.18;;;2.20;;
41897;SDS011;27576;53.366;-1.498;2023-07-29T02:03:19;5.95;;;2.08;;
41897;SDS011;27576;53.366;-1.498;2023-07-29T02:05:44;2.72;;;2.05;;
41897;SDS011;27576;53.366;-1.498;2023-07-29T02:08:10;2.78;;;2.10;;
41897;SDS011;27576;53.366;-1.498;2023-07-29T02:10:36;5.13;;;1.75;;
41897;SDS011;27576;53.366;-1.498;2023-07-29T02:13:02;2.45;;;1.77;;
41897;SDS011;27576;53.366;-1.498;2023-07-29T02:15:29;4.03;;;2.05;;
41897;SDS011;27576;53.366;-1.498;2023-07-29T02:17:54;4.20;;;2.40;;
41897;SDS011;27576;53.366;-1.498;2023-07-29T02:20:20;5.95;;;1.80;;
41897;SDS011;27576;53.366;-1.498;2023-07-29T02:22:45;3.63;;;1.80;;
41897;SDS011;27576;53.366;-1.498;2023-07-29T02:25:10;3.25;;;1.83;;
41897;SDS011;27576;53.366;-1.498;2023-07-29T02:27:36;2.47;;;1.83;;
41897;SDS011;27576;53.366;-1.498;2023-07-29T02:30:02;4.53;;;2.20;;
41897;SDS011;27576;53.366;-1.498;2023-07-29T02:32:28;4.13;;;1.85;;
41897;SDS011;27576;53.366;-1.498;2023-07-29T02:34:53;5.88;;;2.28;;
41897;SDS011;27576;53.366;-1.498;2023-07-29T02:37:19;3.15;;;1.58;;
41897;SDS011;27576;53.366;-1.498;2023-07-29T02:39:45;1.65;;;1.38;;
41897;SDS011;27576;53.366;-1.498;2023-07-29T02:42:10;4.90;;;1.85;;
41897;SDS011;27576;53.366;-1.498;2023-07-29T02:44:36;2.78;;;2.03;;
41897;SDS011;27576;53.366;-1.498;2023-07-29T02:47:01;4.47;;;1.85;;
41897;SDS011;27576;53.366;-1.498;2023-07-29T02:49:27;3.05;;;2.20;;
41897;SDS011;27576;53.366;-1.498;2023-07-29T02:51:52;3.97;;;1.67;;
41897;SDS011;27576;53.366;-1.498;2023-07-29T02:54:17;3.20;;;2.15;;
41897;SDS011;27576;53.366;-1.498;2023-07-29T02:56:43;3.70;;;2.05;;
41897;SDS011;27576;53.366;-1.498;2023-07-29T02:59:08;3.40;;;1.60;;
41897;SDS011;27576;53.366;-1.498;2023-07-29T03:01:33;2.92;;;1.75;;
41897;SDS011;27576;53.366;-1.498;2023-07-29T03:03:59;3.05;;;1.95;;
41897;SDS011;27576;53.366;-1.498;2023-07-29T03:06:24;4.90;;;1.90;;
41897;SDS011;27576;53.366;-1.498;2023-07-29T03:08:50;4.72;;;1.63;;
41897;SDS011;27576;53.366;-1.498;2023-07-29T03:11:15;5.22;;;1.75;;
41897;SDS011;27576;53.366;-1.498;2023-07-29T03:13:41;3.20;;;1.95;;
41897;SDS011;27576;53.366;-1.498;2023-07-29T03:16:15;1.88;;;1.58;;
41897;SDS011;27576;53.366;-1.498;2023-07-29T03:18:42;6.15;;;2.03;;
41897;SDS011;27576;53.366;-1.498;2023-07-29T03:21:08;4.10;;;1.90;;
41897;SDS011;27576;53.366;-1.498;2023-07-29T03:23:34;4.43;;;1.90;;
41897;SDS011;27576;53.366;-1.498;2023-07-29T03:26:01;4.18;;;2.00;;
41897;SDS011;27576;53.366;-1.498;2023-07-29T03:28:34;5.10;;;1.70;;
41897;SDS011;27576;53.366;-1.498;2023-07-29T03:31:00;3.75;;;1.90;;
41897;SDS011;27576;53.366;-1.498;2023-07-29T03:33:25;3.22;;;1.77;;
41897;SDS011;27576;53.366;-1.498;2023-07-29T03:35:54;4.50;;;1.80;;
41897;SDS011;27576;53.366;-1.498;2023-07-29T03:38:19;2.97;;;1.90;;
41897;SDS011;27576;53.366;-1.498;2023-07-29T03:40:44;2.83;;;1.60;;
41897;SDS011;27576;53.366;-1.498;2023-07-29T03:43:10;3.67;;;1.63;;
41897;SDS011;27576;53.366;-1.498;2023-07-29T03:45:35;2.53;;;1.55;;
41897;SDS011;27576;53.366;-1.498;2023-07-29T03:48:02;4.05;;;1.80;;
41897;SDS011;27576;53.366;-1.498;2023-07-29T03:50:28;1.92;;;1.55;;
41897;SDS011;27576;53.366;-1.498;2023-07-29T03:52:54;4.47;;;1.88;;
41897;SDS011;27576;53.366;-1.498;2023-07-29T03:55:20;5.72;;;2.05;;
41897;SDS011;27576;53.366;-1.498;2023-07-29T03:57:45;3.30;;;1.70;;
41897;SDS011;27576;53.366;-1.498;2023-07-29T04:00:11;5.40;;;1.90;;
41897;SDS011;27576;53.366;-1.498;2023-07-29T04:02:37;4.20;;;2.00;;
41897;SDS011;27576;53.366;-1.498;2023-07-29T04:05:05;5.53;;;1.95;;
41897;SDS011;27576;53.366;-1.498;2023-07-29T04:07:33;5.20;;;1.90;;
41897;SDS011;27576;53.366;-1.498;2023-07-29T04:09:59;5.30;;;1.90;;
41897;SDS011;27576;53.366;-1.498;2023-07-29T04:12:24;6.07;;;2.03;;
41897;SDS011;27576;53.366;-1.498;2023-07-29T04:14:50;3.72;;;2.10;;
41897;SDS011;27576;53.366;-1.498;2023-07-29T04:17:15;3.88;;;2.10;;
41897;SDS011;27576;53.366;-1.498;2023-07-29T04:19:40;5.70;;;2.28;;
41897;SDS011;27576;53.366;-1.498;2023-07-29T04:22:06;8.75;;;2.33;;
41897;SDS011;27576;53.366;-1.498;2023-07-29T04:24:31;5.72;;;1.90;;
41897;SDS011;27576;53.366;-1.498;2023-07-29T04:26:57;5.78;;;2.00;;
41897;SDS011;27576;53.366;-1.498;2023-07-29T04:29:22;3.83;;;2.00;;
41897;SDS011;27576;53.366;-1.498;2023-07-29T04:31:48;6.15;;;2.22;;
41897;SDS011;27576;53.366;-1.498;2023-07-29T04:34:14;8.07;;;2.25;;
41897;SDS011;27576;53.366;-1.498;2023-07-29T04:36:39;6.47;;;2.63;;
41897;SDS011;27576;53.366;-1.498;2023-07-29T04:39:05;6.18;;;2.05;;
41897;SDS011;27576;53.366;-1.498;2023-07-29T04:41:30;8.43;;;2.45;;
41897;SDS011;27576;53.366;-1.498;2023-07-29T04:43:55;5.30;;;1.70;;
41897;SDS011;27576;53.366;-1.498;2023-07-29T04:46:21;4.70;;;2.13;;
41897;SDS011;27576;53.366;-1.498;2023-07-29T04:48:46;7.72;;;2.60;;
41897;SDS011;27576;53.366;-1.498;2023-07-29T04:51:11;6.22;;;2.40;;
41897;SDS011;27576;53.366;-1.498;2023-07-29T04:53:37;7.00;;;2.33;;
41897;SDS011;27576;53.366;-1.498;2023-07-29T04:56:03;7.45;;;2.80;;
41897;SDS011;27576;53.366;-1.498;2023-07-29T04:58:28;8.95;;;2.50;;
41897;SDS011;27576;53.366;-1.498;2023-07-29T05:00:55;3.97;;;2.13;;
41897;SDS011;27576;53.366;-1.498;2023-07-29T05:03:20;9.38;;;2.38;;
41897;SDS011;27576;53.366;-1.498;2023-07-29T05:05:46;5.15;;;2.40;;
41897;SDS011;27576;53.366;-1.498;2023-07-29T05:08:11;3.33;;;2.20;;
41897;SDS011;27576;53.366;-1.498;2023-07-29T05:10:37;5.90;;;2.47;;
41897;SDS011;27576;53.366;-1.498;2023-07-29T05:13:02;12.15;;;3.10;;
41897;SDS011;27576;53.366;-1.498;2023-07-29T05:15:27;7.25;;;2.33;;
41897;SDS011;27576;53.366;-1.498;2023-07-29T05:17:53;6.22;;;2.47;;
41897;SDS011;27576;53.366;-1.498;2023-07-29T05:20:18;11.48;;;2.97;;
41897;SDS011;27576;53.366;-1.498;2023-07-29T05:22:46;5.95;;;2.80;;
41897;SDS011;27576;53.366;-1.498;2023-07-29T05:25:12;4.95;;;2.28;;
41897;SDS011;27576;53.366;-1.498;2023-07-29T05:27:37;6.35;;;2.75;;
41897;SDS011;27576;53.366;-1.498;2023-07-29T05:30:02;7.70;;;2.78;;
41897;SDS011;27576;53.366;-1.498;2023-07-29T05:32:28;7.05;;;2.67;;
41897;SDS011;27576;53.366;-1.498;2023-07-29T05:34:54;8.10;;;2.33;;
41897;SDS011;27576;53.366;-1.498;2023-07-29T05:37:20;7.20;;;2.90;;
41897;SDS011;27576;53.366;-1.498;2023-07-29T05:39:45;9.50;;;2.95;;
41897;SDS011;27576;53.366;-1.498;2023-07-29T05:42:10;8.32;;;2.95;;
41897;SDS011;27576;53.366;-1.498;2023-07-29T05:44:35;8.23;;;2.50;;
41897;SDS011;27576;53.366;-1.498;2023-07-29T05:47:01;9.93;;;2.75;;
41897;SDS011;27576;53.366;-1.498;2023-07-29T05:49:26;8.18;;;2.90;;
41897;SDS011;27576;53.366;-1.498;2023-07-29T05:51:52;12.68;;;4.00;;
41897;SDS011;27576;53.366;-1.498;2023-07-29T05:54:18;11.00;;;3.47;;
41897;SDS011;27576;53.366;-1.498;2023-07-29T05:56:44;8.90;;;3.00;;
41897;SDS011;27576;53.366;-1.498;2023-07-29T05:59:09;11.38;;;4.07;;
41897;SDS011;27576;53.366;-1.498;2023-07-29T06:01:34;7.90;;;3.35;;
41897;SDS011;27576;53.366;-1.498;2023-07-29T06:04:00;6.22;;;2.75;;
41897;SDS011;27576;53.366;-1.498;2023-07-29T06:06:26;5.47;;;3.08;;
41897;SDS011;27576;53.366;-1.498;2023-07-29T06:08:51;7.68;;;2.47;;
41897;SDS011;27576;53.366;-1.498;2023-07-29T06:11:20;8.00;;;2.80;;
41897;SDS011;27576;53.366;-1.498;2023-07-29T06:13:47;4.95;;;2.95;;
41897;SDS011;27576;53.366;-1.498;2023-07-29T06:16:12;7.13;;;2.50;;
41897;SDS011;27576;53.366;-1.498;2023-07-29T06:18:38;6.40;;;2.83;;
41897;SDS011;27576;53.366;-1.498;2023-07-29T06:21:03;5.05;;;2.50;;
41897;SDS011;27576;53.366;-1.498;2023-07-29T06:23:32;8.32;;;3.08;;
41897;SDS011;27576;53.366;-1.498;2023-07-29T06:25:58;8.65;;;3.03;;
41897;SDS011;27576;53.366;-1.498;2023-07-29T06:28:25;7.18;;;2.85;;
41897;SDS011;27576;53.366;-1.498;2023-07-29T06:30:50;4.97;;;2.38;;
41897;SDS011;27576;53.366;-1.498;2023-07-29T06:33:16;8.75;;;2.83;;
41897;SDS011;27576;53.366;-1.498;2023-07-29T06:35:41;5.28;;;2.45;;
41897;SDS011;27576;53.366;-1.498;2023-07-29T06:38:07;8.45;;;3.25;;
41897;SDS011;27576;53.366;-1.498;2023-07-29T06:40:32;5.72;;;2.25;;
41897;SDS011;27576;53.366;-1.498;2023-07-29T06:42:57;9.02;;;2.30;;
41897;SDS011;27576;53.366;-1.498;2023-07-29T06:45:23;5.32;;;2.63;;
41897;SDS011;27576;53.366;-1.498;2023-07-29T06:47:48;3.97;;;2.05;;
41897;SDS011;27576;53.366;-1.498;2023-07-29T06:50:13;7.18;;;2.72;;
41897;SDS011;27576;53.366;-1.498;2023-07-29T06:52:39;5.00;;;2.47;;
41897;SDS011;27576;53.366;-1.498;2023-07-29T06:55:05;6.68;;;2.17;;
41897;SDS011;27576;53.366;-1.498;2023-07-29T06:57:31;5.70;;;2.45;;
41897;SDS011;27576;53.366;-1.498;2023-07-29T06:59:56;7.72;;;2.55;;
41897;SDS011;27576;53.366;-1.498;2023-07-29T07:02:22;5.50;;;2.00;;
41897;SDS011;27576;53.366;-1.498;2023-07-29T07:04:47;4.85;;;2.33;;
41897;SDS011;27576;53.366;-1.498;2023-07-29T07:07:12;6.05;;;2.47;;
41897;SDS011;27576;53.366;-1.498;2023-07-29T07:09:38;3.35;;;2.25;;
41897;SDS011;27576;53.366;-1.498;2023-07-29T07:12:03;7.25;;;2.88;;
41897;SDS011;27576;53.366;-1.498;2023-07-29T07:14:29;8.77;;;2.60;;
41897;SDS011;27576;53.366;-1.498;2023-07-29T07:16:54;8.65;;;2.70;;
41897;SDS011;27576;53.366;-1.498;2023-07-29T07:19:19;6.47;;;2.20;;
41897;SDS011;27576;53.366;-1.498;2023-07-29T07:21:45;6.55;;;2.35;;
41897;SDS011;27576;53.366;-1.498;2023-07-29T07:24:10;6.63;;;2.63;;
41897;SDS011;27576;53.366;-1.498;2023-07-29T07:26:36;6.60;;;2.40;;
41897;SDS011;27576;53.366;-1.498;2023-07-29T07:29:01;5.93;;;2.28;;
41897;SDS011;27576;53.366;-1.498;2023-07-29T07:31:26;6.45;;;1.95;;
41897;SDS011;27576;53.366;-1.498;2023-07-29T07:33:52;8.23;;;2.25;;
41897;SDS011;27576;53.366;-1.498;2023-07-29T07:36:17;4.43;;;2.13;;
41897;SDS011;27576;53.366;-1.498;2023-07-29T07:38:42;8.52;;;3.30;;
41897;SDS011;27576;53.366;-1.498;2023-07-29T07:41:08;7.85;;;2.33;;
41897;SDS011;27576;53.366;-1.498;2023-07-29T07:43:33;4.85;;;2.53;;
41897;SDS011;27576;53.366;-1.498;2023-07-29T07:45:59;5.60;;;2.10;;
41897;SDS011;27576;53.366;-1.498;2023-07-29T07:48:26;6.15;;;2.50;;
41897;SDS011;27576;53.366;-1.498;2023-07-29T07:50:52;4.50;;;2.20;;
41897;SDS011;27576;53.366;-1.498;2023-07-29T07:53:18;6.85;;;2.50;;
41897;SDS011;27576;53.366;-1.498;2023-07-29T07:55:44;5.97;;;2.58;;
41897;SDS011;27576;53.366;-1.498;2023-07-29T07:58:10;8.13;;;2.30;;
41897;SDS011;27576;53.366;-1.498;2023-07-29T08:00:35;3.92;;;2.35;;
41897;SDS011;27576;53.366;-1.498;2023-07-29T08:03:00;5.70;;;2.35;;
41897;SDS011;27576;53.366;-1.498;2023-07-29T08:05:26;6.18;;;2.35;;
41897;SDS011;27576;53.366;-1.498;2023-07-29T08:07:51;5.95;;;2.38;;
41897;SDS011;27576;53.366;-1.498;2023-07-29T08:10:17;3.42;;;1.80;;
41897;SDS011;27576;53.366;-1.498;2023-07-29T08:12:42;5.50;;;2.30;;
41897;SDS011;27576;53.366;-1.498;2023-07-29T08:15:07;4.03;;;1.98;;
41897;SDS011;27576;53.366;-1.498;2023-07-29T08:17:33;5.72;;;1.95;;
41897;SDS011;27576;53.366;-1.498;2023-07-29T08:19:58;6.07;;;2.58;;
41897;SDS011;27576;53.366;-1.498;2023-07-29T08:22:24;6.15;;;2.00;;
41897;SDS011;27576;53.366;-1.498;2023-07-29T08:24:49;5.38;;;1.90;;
41897;SDS011;27576;53.366;-1.498;2023-07-29T08:27:14;4.88;;;1.90;;
41897;SDS011;27576;53.366;-1.498;2023-07-29T08:29:40;4.85;;;2.22;;
41897;SDS011;27576;53.366;-1.498;2023-07-29T08:32:05;4.80;;;1.80;;
41897;SDS011;27576;53.366;-1.498;2023-07-29T08:34:31;4.30;;;1.40;;
41897;SDS011;27576;53.366;-1.498;2023-07-29T08:36:56;5.88;;;1.95;;
41897;SDS011;27576;53.366;-1.498;2023-07-29T08:39:22;3.90;;;1.23;;
41897;SDS011;27576;53.366;-1.498;2023-07-29T08:44:45;9.20;;;2.72;;
41897;SDS011;27576;53.366;-1.498;2023-07-29T08:47:14;4.72;;;1.80;;
41897;SDS011;27576;53.366;-1.498;2023-07-29T08:49:39;5.10;;;2.05;;
41897;SDS011;27576;53.366;-1.498;2023-07-29T08:52:05;5.93;;;1.70;;
41897;SDS011;27576;53.366;-1.498;2023-07-29T08:54:32;3.95;;;1.45;;
41897;SDS011;27576;53.366;-1.498;2023-07-29T08:56:58;4.43;;;1.40;;
41897;SDS011;27576;53.366;-1.498;2023-07-29T08:59:25;1.60;;;1.15;;
41897;SDS011;27576;53.366;-1.498;2023-07-29T09:01:51;3.67;;;1.27;;
41897;SDS011;27576;53.366;-1.498;2023-07-29T09:04:20;4.18;;;1.65;;
41897;SDS011;27576;53.366;-1.498;2023-07-29T09:06:46;5.75;;;1.83;;
41897;SDS011;27576;53.366;-1.498;2023-07-29T09:09:13;4.15;;;1.30;;
41897;SDS011;27576;53.366;-1.498;2023-07-29T09:11:38;3.92;;;1.48;;
41897;SDS011;27576;53.366;-1.498;2023-07-29T09:14:03;4.05;;;1.67;;
41897;SDS011;27576;53.366;-1.498;2023-07-29T09:16:29;4.63;;;1.27;;
41897;SDS011;27576;53.366;-1.498;2023-07-29T09:18:55;7.63;;;1.58;;
41897;SDS011;27576;53.366;-1.498;2023-07-29T09:21:22;1.88;;;0.90;;
41897;SDS011;27576;53.366;-1.498;2023-07-29T09:23:50;4.22;;;1.58;;
41897;SDS011;27576;53.366;-1.498;2023-07-29T09:26:21;5.88;;;1.50;;
41897;SDS011;27576;53.366;-1.498;2023-07-29T09:28:54;4.57;;;1.55;;
41897;SDS011;27576;53.366;-1.498;2023-07-29T09:31:21;2.22;;;1.35;;
41897;SDS011;27576;53.366;-1.498;2023-07-29T09:33:47;6.40;;;1.50;;
41897;SDS011;27576;53.366;-1.498;2023-07-29T09:36:13;4.15;;;1.50;;
41897;SDS011;27576;53.366;-1.498;2023-07-29T09:38:39;3.05;;;1.20;;
41897;SDS011;27576;53.366;-1.498;2023-07-29T09:41:04;5.32;;;1.35;;
41897;SDS011;27576;53.366;-1.498;2023-07-29T09:43:31;2.97;;;1.33;;
41897;SDS011;27576;53.366;-1.498;2023-07-29T09:46:00;3.35;;;1.35;;
41897;SDS011;27576;53.366;-1.498;2023-07-29T09:48:27;6.18;;;1.30;;
41897;SDS011;27576;53.366;-1.498;2023-07-29T09:50:54;5.50;;;1.45;;
41897;SDS011;27576;53.366;-1.498;2023-07-29T09:53:20;4.38;;;1.38;;
41897;SDS011;27576;53.366;-1.498;2023-07-29T09:55:46;5.47;;;1.45;;
41897;SDS011;27576;53.366;-1.498;2023-07-29T09:58:13;2.95;;;1.50;;
41897;SDS011;27576;53.366;-1.498;2023-07-29T10:00:39;5.90;;;1.40;;
41897;SDS011;27576;53.366;-1.498;2023-07-29T10:03:05;4.40;;;1.38;;
41897;SDS011;27576;53.366;-1.498;2023-07-29T10:05:31;5.13;;;1.65;;
41897;SDS011;27576;53.366;-1.498;2023-07-29T10:07:59;7.82;;;1.48;;
41897;SDS011;27576;53.366;-1.498;2023-07-29T10:10:26;7.15;;;1.35;;
41897;SDS011;27576;53.366;-1.498;2023-07-29T10:12:52;3.30;;;1.60;;
41897;SDS011;27576;53.366;-1.498;2023-07-29T10:15:19;4.90;;;1.40;;
41897;SDS011;27576;53.366;-1.498;2023-07-29T10:17:46;4.88;;;2.10;;
41897;SDS011;27576;53.366;-1.498;2023-07-29T10:20:12;7.13;;;1.38;;
41897;SDS011;27576;53.366;-1.498;2023-07-29T10:22:39;3.83;;;1.30;;
41897;SDS011;27576;53.366;-1.498;2023-07-29T10:25:10;4.40;;;1.33;;
41897;SDS011;27576;53.366;-1.498;2023-07-29T10:27:47;6.00;;;1.17;;
41897;SDS011;27576;53.366;-1.498;2023-07-29T10:30:28;5.97;;;1.85;;
41897;SDS011;27576;53.366;-1.498;2023-07-29T10:32:54;7.25;;;1.23;;
41897;SDS011;27576;53.366;-1.498;2023-07-29T10:35:23;8.77;;;1.30;;
41897;SDS011;27576;53.366;-1.498;2023-07-29T10:37:48;3.58;;;1.42;;
41897;SDS011;27576;53.366;-1.498;2023-07-29T10:40:16;4.55;;;1.45;;
41897;SDS011;27576;53.366;-1.498;2023-07-29T10:42:59;5.22;;;1.35;;
41897;SDS011;27576;53.366;-1.498;2023-07-29T10:45:38;5.22;;;1.70;;
41897;SDS011;27576;53.366;-1.498;2023-07-29T10:48:11;6.28;;;1.73;;
41897;SDS011;27576;53.366;-1.498;2023-07-29T10:50:38;5.78;;;1.65;;
41897;SDS011;27576;53.366;-1.498;2023-07-29T10:53:03;5.50;;;1.40;;
41897;SDS011;27576;53.366;-1.498;2023-07-29T10:58:12;2.95;;;1.13;;
41897;SDS011;27576;53.366;-1.498;2023-07-29T11:00:42;3.15;;;0.98;;
41897;SDS011;27576;53.366;-1.498;2023-07-29T11:03:09;3.33;;;1.10;;
41897;SDS011;27576;53.366;-1.498;2023-07-29T11:05:50;3.30;;;1.20;;
41897;SDS011;27576;53.366;-1.498;2023-07-29T11:08:30;5.80;;;1.27;;
41897;SDS011;27576;53.366;-1.498;2023-07-29T11:11:06;3.40;;;1.10;;
41897;SDS011;27576;53.366;-1.498;2023-07-29T11:13:36;1.92;;;1.10;;
41897;SDS011;27576;53.366;-1.498;2023-07-29T11:16:02;4.43;;;1.67;;
41897;SDS011;27576;53.366;-1.498;2023-07-29T11:18:32;5.13;;;1.50;;
41897;SDS011;27576;53.366;-1.498;2023-07-29T11:20:59;3.40;;;1.48;;
41897;SDS011;27576;53.366;-1.498;2023-07-29T11:23:29;3.22;;;1.13;;
41897;SDS011;27576;53.366;-1.498;2023-07-29T11:25:56;7.72;;;1.52;;
41897;SDS011;27576;53.366;-1.498;2023-07-29T11:28:22;3.33;;;1.08;;
41897;SDS011;27576;53.366;-1.498;2023-07-29T11:30:47;5.85;;;1.30;;
41897;SDS011;27576;53.366;-1.498;2023-07-29T11:33:16;6.60;;;1.58;;
41897;SDS011;27576;53.366;-1.498;2023-07-29T11:35:43;6.00;;;1.95;;
41897;SDS011;27576;53.366;-1.498;2023-07-29T11:38:14;5.32;;;1.58;;
41897;SDS011;27576;53.366;-1.498;2023-07-29T11:40:40;6.05;;;1.63;;
41897;SDS011;27576;53.366;-1.498;2023-07-29T11:43:05;6.80;;;1.85;;
41897;SDS011;27576;53.366;-1.498;2023-07-29T11:45:31;5.65;;;1.67;;
41897;SDS011;27576;53.366;-1.498;2023-07-29T11:47:56;5.20;;;1.50;;
41897;SDS011;27576;53.366;-1.498;2023-07-29T11:50:21;4.40;;;1.27;;
41897;SDS011;27576;53.366;-1.498;2023-07-29T11:52:46;8.38;;;2.17;;
41897;SDS011;27576;53.366;-1.498;2023-07-29T11:55:14;7.22;;;1.88;;
41897;SDS011;27576;53.366;-1.498;2023-07-29T11:57:40;4.13;;;1.42;;
41897;SDS011;27576;53.366;-1.498;2023-07-29T12:00:07;7.95;;;1.90;;
41897;SDS011;27576;53.366;-1.498;2023-07-29T12:02:38;5.97;;;1.77;;
41897;SDS011;27576;53.366;-1.498;2023-07-29T12:05:05;6.05;;;1.55;;
41897;SDS011;27576;53.366;-1.498;2023-07-29T12:07:31;7.85;;;2.25;;
41897;SDS011;27576;53.366;-1.498;2023-07-29T12:09:58;9.73;;;1.50;;
41897;SDS011;27576;53.366;-1.498;2023-07-29T12:12:24;10.10;;;1.80;;
41897;SDS011;27576;53.366;-1.498;2023-07-29T12:14:49;5.38;;;1.50;;
41897;SDS011;27576;53.366;-1.498;2023-07-29T12:17:15;3.38;;;1.23;;
41897;SDS011;27576;53.366;-1.498;2023-07-29T12:19:40;6.40;;;1.20;;
41897;SDS011;27576;53.366;-1.498;2023-07-29T12:22:07;3.95;;;1.50;;
41897;SDS011;27576;53.366;-1.498;2023-07-29T12:24:35;6.60;;;1.60;;
41897;SDS011;27576;53.366;-1.498;2023-07-29T12:27:04;3.25;;;1.20;;
41897;SDS011;27576;53.366;-1.498;2023-07-29T12:29:30;6.95;;;1.80;;
41897;SDS011;27576;53.366;-1.498;2023-07-29T12:32:00;5.63;;;1.73;;
41897;SDS011;27576;53.366;-1.498;2023-07-29T12:34:27;5.95;;;1.40;;
41897;SDS011;27576;53.366;-1.498;2023-07-29T12:36:54;5.32;;;1.33;;
41897;SDS011;27576;53.366;-1.498;2023-07-29T12:39:22;5.60;;;1.45;;
41897;SDS011;27576;53.366;-1.498;2023-07-29T12:41:55;8.98;;;1.50;;
41897;SDS011;27576;53.366;-1.498;2023-07-29T12:44:25;4.57;;;1.20;;
41897;SDS011;27576;53.366;-1.498;2023-07-29T12:46:52;4.63;;;1.35;;
41897;SDS011;27576;53.366;-1.498;2023-07-29T12:49:18;9.27;;;1.95;;
41897;SDS011;27576;53.366;-1.498;2023-07-29T12:51:43;6.95;;;1.48;;
41897;SDS011;27576;53.366;-1.498;2023-07-29T12:54:09;6.32;;;1.52;;
41897;SDS011;27576;53.366;-1.498;2023-07-29T12:56:34;3.47;;;1.30;;
41897;SDS011;27576;53.366;-1.498;2023-07-29T12:59:01;6.47;;;1.70;;
41897;SDS011;27576;53.366;-1.498;2023-07-29T13:01:28;3.30;;;1.40;;
41897;SDS011;27576;53.366;-1.498;2023-07-29T13:03:54;4.75;;;1.23;;
41897;SDS011;27576;53.366;-1.498;2023-07-29T13:06:19;3.00;;;1.13;;
41897;SDS011;27576;53.366;-1.498;2023-07-29T13:08:45;4.78;;;1.48;;
41897;SDS011;27576;53.366;-1.498;2023-07-29T13:11:11;5.35;;;1.48;;
41897;SDS011;27576;53.366;-1.498;2023-07-29T13:13:37;5.38;;;1.50;;
41897;SDS011;27576;53.366;-1.498;2023-07-29T13:16:02;4.00;;;1.10;;
41897;SDS011;27576;53.366;-1.498;2023-07-29T13:18:28;3.47;;;1.27;;
41897;SDS011;27576;53.366;-1.498;2023-07-29T13:20:53;8.98;;;1.52;;
41897;SDS011;27576;53.366;-1.498;2023-07-29T13:23:19;5.38;;;1.77;;
41897;SDS011;27576;53.366;-1.498;2023-07-29T13:25:44;4.55;;;1.23;;
41897;SDS011;27576;53.366;-1.498;2023-07-29T13:28:10;6.00;;;1.30;;
41897;SDS011;27576;53.366;-1.498;2023-07-29T13:30:36;6.40;;;1.20;;
41897;SDS011;27576;53.366;-1.498;2023-07-29T13:33:01;3.55;;;1.48;;
41897;SDS011;27576;53.366;-1.498;2023-07-29T13:35:27;3.97;;;1.17;;
41897;SDS011;27576;53.366;-1.498;2023-07-29T13:37:52;3.03;;;1.27;;
41897;SDS011;27576;53.366;-1.498;2023-07-29T13:40:18;4.85;;;1.42;;
41897;SDS011;27576;53.366;-1.498;2023-07-29T13:42:43;5.60;;;1.50;;
41897;SDS011;27576;53.366;-1.498;2023-07-29T13:45:08;5.38;;;1.40;;
41897;SDS011;27576;53.366;-1.498;2023-07-29T13:47:34;2.55;;;1.00;;
41897;SDS011;27576;53.366;-1.498;2023-07-29T13:50:00;3.35;;;1.30;;
41897;SDS011;27576;53.366;-1.498;2023-07-29T13:52:25;3.70;;;1.08;;
41897;SDS011;27576;53.366;-1.498;2023-07-29T13:54:52;3.33;;;1.35;;
41897;SDS011;27576;53.366;-1.498;2023-07-29T13:57:17;2.53;;;1.00;;
41897;SDS011;27576;53.366;-1.498;2023-07-29T13:59:42;2.88;;;0.95;;
41897;SDS011;27576;53.366;-1.498;2023-07-29T14:02:08;4.00;;;1.05;;
41897;SDS011;27576;53.366;-1.498;2023-07-29T14:04:33;3.08;;;1.13;;
41897;SDS011;27576;53.366;-1.498;2023-07-29T14:06:59;2.75;;;1.15;;
41897;SDS011;27576;53.366;-1.498;2023-07-29T14:09:25;3.05;;;1.42;;
41897;SDS011;27576;53.366;-1.498;2023-07-29T14:11:51;4.25;;;1.05;;
41897;SDS011;27576;53.366;-1.498;2023-07-29T14:14:16;2.70;;;0.95;;
41897;SDS011;27576;53.366;-1.498;2023-07-29T14:16:42;2.97;;;1.02;;
41897;SDS011;27576;53.366;-1.498;2023-07-29T14:19:08;5.25;;;1.05;;
41897;SDS011;27576;53.366;-1.498;2023-07-29T14:21:33;2.38;;;0.95;;
41897;SDS011;27576;53.366;-1.498;2023-07-29T14:23:58;2.17;;;0.88;;
41897;SDS011;27576;53.366;-1.498;2023-07-29T14:26:24;3.08;;;0.90;;
41897;SDS011;27576;53.366;-1.498;2023-07-29T14:28:49;2.88;;;0.80;;
41897;SDS011;27576;53.366;-1.498;2023-07-29T14:31:15;2.47;;;0.98;;
41897;SDS011;27576;53.366;-1.498;2023-07-29T14:33:42;3.67;;;0.90;;
41897;SDS011;27576;53.366;-1.498;2023-07-29T14:36:08;7.70;;;1.27;;
41897;SDS011;27576;53.366;-1.498;2023-07-29T14:38:34;2.45;;;0.90;;